Time;durP1;ratioP1;P1;durP2;ratioP2;P2;SDS_P1;SDS_P2;PMS_P1;PMS_P2;Temp;Humidity;BMP_temperature;BMP_pressure;BME280_temperature;BME280_humidity;BME280_pressure;Samples;Min_cycle;Max_cycle;Signal;HPM_P1;HPM_P2
2022/11/06 00:00:08;;;;;;;0.25;0.05;;;;;;;8.01;100.00;101680.78;10460789;28;20045;-77
2022/11/06 00:10:40;;;;;;;0.32;0.28;;;;;;;7.93;100.00;101669.25;10450814;28;20099;-77
2022/11/06 00:15:41;;;;;;;0.60;0.25;;;;;;;8.02;100.00;101661.13;10459903;28;20534;-76
2022/11/06 00:20:43;;;;;;;0.43;0.30;;;;;;;8.11;100.00;101671.84;10454093;28;20476;-75
2022/11/06 00:25:44;;;;;;;0.35;0.35;;;;;;;7.99;100.00;101667.00;10458603;28;20076;-77
2022/11/06 00:30:46;;;;;;;0.35;0.10;;;;;;;8.03;100.00;101668.91;10478858;28;20132;-76
2022/11/06 00:35:47;;;;;;;2.00;0.52;;;;;;;7.97;100.00;101678.00;10458507;28;20397;-76
2022/11/06 00:40:49;;;;;;;0.60;0.60;;;;;;;7.97;100.00;101688.25;10457890;28;20072;-76
2022/11/06 00:45:51;;;;;;;0.52;0.45;;;;;;;7.94;100.00;101684.72;10458408;28;20051;-76
2022/11/06 00:51:08;;;;;;;0.73;0.57;;;;;;;7.97;100.00;101684.00;10476855;28;20041;-75
2022/11/06 00:56:12;;;;;;;0.57;0.55;;;;;;;7.99;100.00;101684.09;10457591;28;20036;-75
2022/11/06 01:01:25;;;;;;;2.15;0.65;;;;;;;7.86;100.00;101675.75;10462719;28;20125;-76
2022/11/06 01:06:30;;;;;;;0.10;0.10;;;;;;;7.78;100.00;101677.97;10456190;28;20040;-76
2022/11/06 01:11:40;;;;;;;0.68;0.50;;;;;;;7.74;100.00;101683.72;10445847;28;20051;-76
2022/11/06 01:17:02;;;;;;;0.57;0.15;;;;;;;7.66;100.00;101661.06;10442097;28;20041;-76
2022/11/06 01:22:04;;;;;;;0.45;0.40;;;;;;;7.77;100.00;101665.94;10455654;28;20544;-76
2022/11/06 01:27:05;;;;;;;0.63;0.22;;;;;;;7.73;100.00;101658.00;10456663;28;20049;-76
2022/11/06 01:32:27;;;;;;;0.45;0.30;;;;;;;7.73;100.00;101648.66;10446903;28;20038;-76
2022/11/06 01:37:28;;;;;;;0.65;0.35;;;;;;;7.78;100.00;101641.19;10447942;28;20044;-75
2022/11/06 01:42:30;;;;;;;0.20;0.20;;;;;;;7.55;100.00;101633.22;10447958;28;20560;-76
2022/11/06 01:47:32;;;;;;;0.55;0.50;;;;;;;7.61;100.00;101635.19;10463048;28;20486;-77
2022/11/06 01:52:34;;;;;;;0.50;0.22;;;;;;;7.44;100.00;101627.56;10485741;28;20132;-77
2022/11/06 01:57:36;;;;;;;0.63;0.47;;;;;;;7.51;100.00;101623.59;10452248;28;20440;-76
2022/11/06 02:02:39;;;;;;;0.17;0.17;;;;;;;7.45;100.00;101636.13;10466435;28;20496;-76
2022/11/06 02:07:42;;;;;;;1.23;0.50;;;;;;;7.52;100.00;101637.31;10476863;28;20040;-76
2022/11/06 02:12:48;;;;;;;3.40;0.30;;;;;;;7.59;100.00;101645.38;10476784;28;20203;-76
2022/11/06 02:18:29;;;;;;;3.40;0.38;;;;;;;7.66;100.00;101630.28;10463652;28;20476;-76
2022/11/06 02:23:49;;;;;;;0.47;0.43;;;;;;;7.66;100.00;101625.16;10463555;28;20080;-76
2022/11/06 02:28:57;;;;;;;0.30;0.30;;;;;;;7.55;100.00;101615.28;10437384;28;20447;-76
2022/11/06 02:34:05;;;;;;;0.00;0.00;;;;;;;7.42;100.00;101610.31;10463351;28;20494;-76
2022/11/06 02:39:11;;;;;;;0.28;0.10;;;;;;;7.45;100.00;101613.91;10462984;28;20068;-76
2022/11/06 02:44:18;;;;;;;1.15;1.05;;;;;;;7.43;100.00;101594.13;10488726;28;20079;-76
2022/11/06 02:49:29;;;;;;;0.13;0.13;;;;;;;7.45;100.00;101595.09;10491421;28;20549;-76
2022/11/06 02:54:34;;;;;;;0.55;0.32;;;;;;;7.48;100.00;101590.13;10520684;28;20052;-76
2022/11/06 02:59:48;;;;;;;0.25;0.25;;;;;;;7.45;100.00;101593.41;10481263;28;20171;-75
2022/11/06 03:05:07;;;;;;;4.50;0.68;;;;;;;7.57;100.00;101585.44;10478978;28;20597;-76
2022/11/06 03:10:10;;;;;;;0.30;0.05;;;;;;;7.73;100.00;101575.94;10503577;28;20119;-76
2022/11/06 03:15:21;;;;;;;0.00;0.00;;;;;;;7.81;100.00;101561.78;10450552;28;20083;-76
2022/11/06 03:20:34;;;;;;;0.93;0.65;;;;;;;7.81;100.00;101543.84;10473165;28;20080;-77
2022/11/06 03:26:07;;;;;;;0.10;0.10;;;;;;;7.75;100.00;101538.41;10466834;28;20123;-77
2022/11/06 03:31:16;;;;;;;0.15;0.10;;;;;;;7.90;100.00;101543.38;10471399;28;20519;-75
2022/11/06 03:42:13;;;;;;;0.00;0.00;;;;;;;7.85;100.00;101540.63;10459215;28;20087;-77
2022/11/06 03:47:26;;;;;;;0.00;0.00;;;;;;;7.94;100.00;101525.63;10460360;28;20080;-77
2022/11/06 03:52:34;;;;;;;0.80;0.13;;;;;;;8.00;100.00;101530.19;10442562;28;20076;-77
2022/11/06 03:57:57;;;;;;;1.20;0.30;;;;;;;8.00;100.00;101519.06;10460265;28;20045;-77
2022/11/06 04:03:04;;;;;;;0.10;0.10;;;;;;;8.01;100.00;101511.41;10459316;28;20095;-76
2022/11/06 04:18:52;;;;;;;0.57;0.45;;;;;;;8.11;100.00;101497.31;10467994;28;20047;-76
2022/11/06 04:30:01;;;;;;;0.73;0.30;;;;;;;8.15;100.00;101488.97;10499984;28;20123;-76
2022/11/06 04:35:24;;;;;;;4.38;2.05;;;;;;;8.10;100.00;101486.19;10470064;28;20037;-75
2022/11/06 04:40:37;;;;;;;0.00;0.00;;;;;;;8.07;100.00;101495.44;10457109;28;20076;-76
2022/11/06 04:45:44;;;;;;;0.20;0.17;;;;;;;8.12;100.00;101487.94;10458084;28;20558;-76
2022/11/06 04:50:50;;;;;;;0.20;0.20;;;;;;;8.12;100.00;101465.72;10458389;28;20080;-75
2022/11/06 04:55:55;;;;;;;0.00;0.00;;;;;;;8.04;100.00;101455.09;10458054;28;20498;-76
2022/11/06 05:00:56;;;;;;;0.40;0.15;;;;;;;8.12;100.00;101442.63;10473254;28;20041;-77
2022/11/06 05:05:58;;;;;;;0.20;0.20;;;;;;;8.05;100.00;101446.59;10471836;28;20492;-76
2022/11/06 05:10:59;;;;;;;0.52;0.40;;;;;;;7.97;100.00;101453.06;10457244;28;20041;-76
2022/11/06 05:16:01;;;;;;;0.55;0.45;;;;;;;8.00;100.00;101449.78;10457009;28;20081;-76
2022/11/06 05:26:23;;;;;;;;;;;;;;;8.05;100.00;101461.13;10456462;28;20041;-77
2022/11/06 05:31:25;;;;;;;0.00;0.00;;;;;;;8.09;100.00;101447.59;10456682;28;19970;-75
2022/11/06 05:36:26;;;;;;;0.45;0.10;;;;;;;8.16;100.00;101441.94;10456485;28;20095;-75
2022/11/06 05:41:28;;;;;;;0.20;0.20;;;;;;;8.12;100.00;101437.47;10484394;28;20186;-78
2022/11/06 05:46:31;;;;;;;0.00;0.00;;;;;;;8.14;100.00;101435.88;10496501;28;20052;-76
2022/11/06 05:51:50;;;;;;;2.08;1.15;;;;;;;8.08;100.00;101438.13;10498014;28;20045;-76
2022/11/06 05:56:51;;;;;;;0.10;0.10;;;;;;;8.05;100.00;101440.59;10474276;28;20059;-76
2022/11/06 06:01:53;;;;;;;0.10;0.00;;;;;;;8.00;100.00;101454.91;10488411;28;20049;-77
2022/11/06 06:06:54;;;;;;;1.45;0.15;;;;;;;7.90;100.00;101446.78;10460736;28;20060;-77
2022/11/06 06:11:56;;;;;;;0.00;0.00;;;;;;;7.93;100.00;101446.91;10487256;28;20049;-78
2022/11/06 06:16:57;;;;;;;0.10;0.10;;;;;;;7.81;100.00;101451.47;10474942;28;20553;-76
2022/11/06 06:21:59;;;;;;;0.00;0.00;;;;;;;7.73;100.00;101453.72;10455433;28;20091;-77
2022/11/06 06:27:01;;;;;;;0.52;0.00;;;;;;;7.69;100.00;101445.81;10454439;28;20411;-75
2022/11/06 06:32:03;;;;;;;0.43;0.20;;;;;;;7.74;100.00;101449.44;10455425;28;20128;-76
2022/11/06 06:37:05;;;;;;;0.00;0.00;;;;;;;7.58;100.00;101453.84;10454266;28;20151;-76
2022/11/06 06:42:06;;;;;;;0.00;0.00;;;;;;;7.74;100.00;101454.56;10462931;28;20158;-77
2022/11/06 06:47:08;;;;;;;2.72;0.20;;;;;;;7.84;100.00;101451.63;10461671;28;20087;-75
2022/11/06 06:52:10;;;;;;;0.20;0.10;;;;;;;7.96;100.00;101448.75;10463066;28;20115;-76
2022/11/06 06:57:11;;;;;;;0.00;0.00;;;;;;;8.16;100.00;101434.22;10460989;28;20073;-76
2022/11/06 07:02:13;;;;;;;0.17;0.10;;;;;;;8.30;100.00;101426.28;10473889;28;20045;-76
2022/11/06 07:07:14;;;;;;;0.10;0.10;;;;;;;8.37;100.00;101418.91;10532092;28;20056;-76
2022/11/06 07:12:16;;;;;;;0.40;0.35;;;;;;;8.41;100.00;101409.63;10477856;28;20064;-76
2022/11/06 07:17:18;;;;;;;0.20;0.20;;;;;;;8.49;100.00;101407.44;10461359;28;20033;-75
2022/11/06 07:22:19;;;;;;;0.90;0.45;;;;;;;8.61;100.00;101404.47;10487787;28;20127;-76
2022/11/06 07:27:32;;;;;;;2.92;0.43;;;;;;;8.72;100.00;101395.56;10489172;28;20057;-77
2022/11/06 07:32:34;;;;;;;0.10;0.10;;;;;;;8.73;100.00;101387.03;10471079;28;20029;-76
2022/11/06 07:37:36;;;;;;;0.00;0.00;;;;;;;8.70;100.00;101372.38;10460933;28;20051;-77
2022/11/06 07:42:37;;;;;;;0.20;0.10;;;;;;;8.83;100.00;101360.88;10479406;28;20515;-76
2022/11/06 07:47:48;;;;;;;0.45;0.45;;;;;;;8.92;100.00;101347.56;10464496;28;20049;-76
2022/11/06 07:52:50;;;;;;;5.28;0.10;;;;;;;9.10;100.00;101344.81;10459488;28;20059;-75
2022/11/06 07:57:51;;;;;;;0.10;0.03;;;;;;;9.55;100.00;101330.22;10460170;28;20041;-76
2022/11/06 08:02:53;;;;;;;0.03;0.03;;;;;;;10.16;100.00;101310.91;10461991;28;20136;-77
2022/11/06 08:07:58;;;;;;;1.05;0.85;;;;;;;9.94;100.00;101291.28;10442958;28;20058;-76
2022/11/06 08:13:02;;;;;;;0.10;0.10;;;;;;;9.80;100.00;101278.78;10417354;28;20096;-77
2022/11/06 08:18:05;;;;;;;0.30;0.10;;;;;;;9.77;100.00;101290.69;10418093;28;20481;-76
2022/11/06 08:29:35;;;;;;;0.40;0.35;;;;;;;9.87;100.00;101291.88;10458577;28;20033;-76
2022/11/06 08:34:42;;;;;;;0.10;0.10;;;;;;;10.39;100.00;101267.91;10435696;28;20045;-76
2022/11/06 08:39:43;;;;;;;0.05;0.05;;;;;;;11.00;100.00;101232.00;10460086;28;20049;-77
2022/11/06 08:44:45;;;;;;;0.32;0.00;;;;;;;10.89;100.00;101223.09;10458146;28;20131;-77
2022/11/06 08:49:46;;;;;;;0.00;0.00;;;;;;;10.24;100.00;101223.63;10435061;28;20075;-77
2022/11/06 08:54:48;;;;;;;0.73;0.52;;;;;;;10.08;100.00;101233.44;10439317;28;20076;-77
2022/11/06 08:59:49;;;;;;;0.70;0.30;;;;;;;10.08;100.00;101225.72;10462591;28;20098;-76
2022/11/06 09:04:51;;;;;;;0.20;0.20;;;;;;;10.10;100.00;101218.88;10432937;28;20199;-77
2022/11/06 09:09:52;;;;;;;0.10;0.10;;;;;;;10.19;100.00;101218.34;10457524;28;20062;-76
2022/11/06 09:14:54;;;;;;;0.00;0.00;;;;;;;10.29;100.00;101210.06;10452168;28;20139;-76
2022/11/06 09:19:55;;;;;;;0.00;0.00;;;;;;;10.24;100.00;101201.31;10466704;28;20061;-76
2022/11/06 09:24:57;;;;;;;0.00;0.00;;;;;;;10.48;100.00;101190.94;10463091;28;20050;-76
2022/11/06 09:30:05;;;;;;;0.10;0.10;;;;;;;10.39;100.00;101184.63;10450921;28;20041;-77
2022/11/06 09:35:07;;;;;;;0.20;0.10;;;;;;;10.33;100.00;101167.25;10456026;28;20117;-75
2022/11/06 09:40:24;;;;;;;0.20;0.10;;;;;;;10.25;100.00;101176.44;10449943;28;20128;-76
2022/11/06 09:45:29;;;;;;;0.00;0.00;;;;;;;10.26;100.00;101173.94;10498030;28;20123;-76
2022/11/06 09:50:36;;;;;;;0.00;0.00;;;;;;;10.23;100.00;101170.38;10498096;28;20044;-77
2022/11/06 09:55:43;;;;;;;0.10;0.10;;;;;;;10.09;100.00;101178.53;10453348;28;20175;-77
2022/11/06 10:00:46;;;;;;;0.10;0.10;;;;;;;10.16;100.00;101162.44;10452972;28;20041;-77
2022/11/06 10:05:52;;;;;;;0.57;0.30;;;;;;;10.48;100.00;101170.34;10455040;28;20049;-76
2022/11/06 10:11:12;;;;;;;0.30;0.30;;;;;;;10.66;100.00;101161.44;10438441;28;20051;-76
2022/11/06 10:16:22;;;;;;;0.00;0.00;;;;;;;10.72;100.00;101151.28;10462420;28;20470;-77
2022/11/06 10:21:40;;;;;;;0.00;0.00;;;;;;;10.67;100.00;101145.13;10462498;28;20373;-76
2022/11/06 10:26:51;;;;;;;0.00;0.00;;;;;;;10.82;100.00;101138.69;10464012;28;20492;-76
2022/11/06 10:32:13;;;;;;;0.30;0.10;;;;;;;11.12;100.00;101120.59;10422307;28;20120;-77
2022/11/06 10:37:28;;;;;;;0.00;0.00;;;;;;;12.01;100.00;101083.28;10472477;28;20049;-76
2022/11/06 10:42:36;;;;;;;0.00;0.00;;;;;;;12.18;100.00;101077.59;10463060;28;20068;-76
2022/11/06 10:47:45;;;;;;;0.25;0.03;;;;;;;11.35;100.00;101067.06;10451365;28;20124;-76
2022/11/06 10:52:53;;;;;;;0.00;0.00;;;;;;;11.87;100.00;101062.28;10420580;28;20057;-76
2022/11/06 10:58:00;;;;;;;0.15;0.03;;;;;;;11.32;100.00;101061.81;10471361;28;20132;-76
2022/11/06 11:03:05;;;;;;;0.15;0.10;;;;;;;11.06;100.00;101056.84;10462176;28;20452;-77
2022/11/06 11:08:29;;;;;;;0.05;0.05;;;;;;;11.06;100.00;101049.09;10469489;28;20131;-76
2022/11/06 11:13:32;;;;;;;0.20;0.20;;;;;;;11.05;100.00;101044.81;10462026;28;20443;-75
2022/11/06 11:18:33;;;;;;;0.00;0.00;;;;;;;11.07;100.00;101035.38;10462115;28;20397;-76
2022/11/06 11:23:35;;;;;;;0.35;0.35;;;;;;;11.28;100.00;101031.63;10461434;28;20479;-76
2022/11/06 11:28:38;;;;;;;0.85;0.20;;;;;;;12.02;100.00;101002.41;10439650;28;20121;-76
2022/11/06 11:33:48;;;;;;;2.45;1.08;;;;;;;11.31;100.00;100999.88;10443287;28;20127;-77
2022/11/06 11:38:50;;;;;;;0.20;0.20;;;;;;;11.10;100.00;100991.66;10461449;28;20123;-77
2022/11/06 11:44:13;;;;;;;0.03;0.00;;;;;;;11.20;100.00;100979.00;10459419;28;20132;-76
2022/11/06 11:49:32;;;;;;;0.10;0.10;;;;;;;11.11;100.00;100967.59;10445011;28;20060;-78
2022/11/06 11:54:34;;;;;;;0.40;0.13;;;;;;;11.08;100.00;100951.19;10458411;28;20470;-77
2022/11/06 11:59:41;;;;;;;0.00;0.00;;;;;;;11.08;100.00;100958.94;10441530;28;20045;-77
2022/11/06 12:04:45;;;;;;;0.10;0.05;;;;;;;11.05;100.00;100944.25;10439035;28;20079;-76
2022/11/06 12:09:47;;;;;;;0.13;0.13;;;;;;;11.25;100.00;100943.84;10438791;28;20391;-77
2022/11/06 12:15:18;;;;;;;0.52;0.30;;;;;;;11.33;100.00;100931.13;10439780;28;20068;-77
2022/11/06 12:20:25;;;;;;;9.00;0.38;;;;;;;11.47;100.00;100928.88;10453287;28;20056;-77
2022/11/06 12:25:37;;;;;;;0.10;0.10;;;;;;;11.62;100.00;100908.56;10447864;28;20056;-77
2022/11/06 12:30:42;;;;;;;0.10;0.10;;;;;;;11.42;100.00;100888.38;10458363;28;20055;-77
2022/11/06 12:35:52;;;;;;;0.43;0.40;;;;;;;11.44;100.00;100862.59;10446903;28;20099;-75
2022/11/06 12:41:02;;;;;;;0.52;0.32;;;;;;;11.39;100.00;100857.34;10417199;28;20048;-77
2022/11/06 12:46:44;;;;;;;1.30;0.30;;;;;;;11.26;100.00;100860.50;10417012;28;20052;-76
2022/11/06 12:51:52;;;;;;;0.00;0.00;;;;;;;11.25;100.00;100866.47;10416737;28;20136;-76
2022/11/06 12:56:58;;;;;;;0.85;0.17;;;;;;;11.22;100.00;100859.56;10439062;28;20091;-77
2022/11/06 13:02:21;;;;;;;0.25;0.25;;;;;;;11.27;100.00;100864.81;10457635;28;20045;-76
2022/11/06 13:07:37;;;;;;;1.85;0.73;;;;;;;11.10;100.00;100857.56;10449795;28;20068;-76
2022/11/06 13:12:57;;;;;;;0.35;0.30;;;;;;;11.04;100.00;100847.13;10457318;28;20514;-77
2022/11/06 13:18:16;;;;;;;0.70;0.70;;;;;;;11.11;100.00;100849.00;10457086;28;20048;-76
2022/11/06 13:23:27;;;;;;;0.90;0.82;;;;;;;11.13;100.00;100841.28;10457078;28;20106;-75
2022/11/06 13:28:44;;;;;;;6.63;2.03;;;;;;;11.15;100.00;100838.75;10455613;28;20056;-76
2022/11/06 13:33:53;;;;;;;0.17;0.10;;;;;;;11.02;100.00;100842.78;10455729;28;20048;-76
2022/11/06 13:39:01;;;;;;;0.00;0.00;;;;;;;11.02;100.00;100846.19;10456720;28;20061;-75
2022/11/06 13:44:06;;;;;;;8.43;1.08;;;;;;;11.14;100.00;100830.16;10457414;28;20091;-76
2022/11/06 13:49:13;;;;;;;0.88;0.43;;;;;;;11.02;100.00;100830.75;10459642;28;20076;-76
2022/11/06 13:54:49;;;;;;;0.90;0.63;;;;;;;10.91;100.00;100827.03;10463881;28;20057;-76
2022/11/06 14:00:07;;;;;;;0.43;0.43;;;;;;;10.89;100.00;100816.69;10464710;28;20481;-76
2022/11/06 14:05:34;;;;;;;0.03;0.03;;;;;;;10.87;100.00;100817.50;10446738;28;20140;-76
2022/11/06 14:10:45;;;;;;;0.32;0.20;;;;;;;10.79;100.00;100818.19;10463253;28;20396;-76
2022/11/06 14:15:47;;;;;;;4.03;0.60;;;;;;;10.72;100.00;100812.88;10476061;28;20100;-77
2022/11/06 14:21:26;;;;;;;2.30;1.45;;;;;;;10.66;100.00;100803.28;10485219;28;20052;-77
2022/11/06 14:26:46;;;;;;;0.80;0.70;;;;;;;10.62;100.00;100801.44;10422844;28;20041;-76
2022/11/06 14:32:05;;;;;;;0.28;0.20;;;;;;;10.66;100.00;100798.13;10422286;28;20477;-75
2022/11/06 14:37:19;;;;;;;0.60;0.60;;;;;;;10.56;100.00;100811.59;10420835;28;20045;-76
2022/11/06 14:42:34;;;;;;;0.08;0.08;;;;;;;10.51;100.00;100808.91;10422026;28;20064;-76
2022/11/06 14:47:44;;;;;;;0.10;0.10;;;;;;;10.52;100.00;100814.94;10456764;28;20036;-76
2022/11/06 14:52:56;;;;;;;0.47;0.10;;;;;;;10.50;100.00;100802.00;10462638;28;20123;-76
2022/11/06 14:58:23;;;;;;;0.10;0.10;;;;;;;10.54;100.00;100802.97;10462447;28;20052;-75
2022/11/06 15:03:39;;;;;;;10.50;0.52;;;;;;;10.50;100.00;100812.31;10473499;28;20057;-77
2022/11/06 15:08:49;;;;;;;0.08;0.08;;;;;;;10.45;100.00;100814.81;10462270;28;20053;-77
2022/11/06 15:13:51;;;;;;;0.00;0.00;;;;;;;10.44;100.00;100812.16;10460762;28;20055;-77
2022/11/06 15:18:53;;;;;;;0.30;0.30;;;;;;;10.41;100.00;100802.66;10461945;28;20107;-77
2022/11/06 15:24:10;;;;;;;0.00;0.00;;;;;;;10.32;100.00;100808.44;10491709;28;20032;-76
2022/11/06 15:29:25;;;;;;;0.13;0.13;;;;;;;10.04;100.00;100801.69;10503008;28;20037;-77
2022/11/06 15:34:31;;;;;;;0.75;0.75;;;;;;;9.63;100.00;100819.44;10478307;28;20128;-77
2022/11/06 15:39:50;;;;;;;0.00;0.00;;;;;;;9.25;100.00;100816.63;10461155;28;20395;-78
2022/11/06 15:45:29;;;;;;;0.00;0.00;;;;;;;8.84;100.00;100805.13;10461216;28;20103;-78
2022/11/06 15:50:32;;;;;;;0.00;0.00;;;;;;;8.60;100.00;100823.19;10441721;28;20135;-78
2022/11/06 15:55:37;;;;;;;0.08;0.00;;;;;;;8.30;100.00;100857.25;10444751;28;20501;-77
2022/11/06 16:00:40;;;;;;;0.10;0.10;;;;;;;8.16;100.00;100923.50;10433185;28;20099;-78
2022/11/06 16:05:42;;;;;;;0.57;0.40;;;;;;;8.18;100.00;100942.41;10445508;28;20104;-78
2022/11/06 16:10:48;;;;;;;1.45;0.43;;;;;;;8.15;100.00;100950.00;10431374;28;20408;-78
2022/11/06 16:15:57;;;;;;;0.80;0.43;;;;;;;8.07;100.00;100948.84;10442758;28;20072;-79
2022/11/06 16:21:08;;;;;;;0.20;0.20;;;;;;;7.91;100.00;100950.84;10441359;28;20496;-79
2022/11/06 16:26:14;;;;;;;0.20;0.00;;;;;;;7.80;100.00;100946.13;10446715;28;20160;-79
2022/11/06 16:31:19;;;;;;;0.00;0.00;;;;;;;7.76;100.00;100955.38;10434895;28;20484;-79
2022/11/06 16:36:23;;;;;;;0.10;0.10;;;;;;;7.69;100.00;100958.53;10438000;28;20067;-79
2022/11/06 16:41:57;;;;;;;0.10;0.10;;;;;;;7.69;100.00;100948.28;10476010;28;20045;-78
2022/11/06 16:47:19;;;;;;;0.30;0.20;;;;;;;7.68;100.00;100931.13;10435528;28;20525;-80
2022/11/06 16:52:29;;;;;;;0.55;0.50;;;;;;;7.57;100.00;100912.78;10441073;28;20052;-79
2022/11/06 16:57:41;;;;;;;0.13;0.13;;;;;;;7.57;100.00;100911.06;10438914;28;20095;-80
2022/11/06 17:02:46;;;;;;;0.38;0.38;;;;;;;7.49;100.00;100904.78;10443493;28;20128;-79
2022/11/06 17:08:19;;;;;;;0.10;0.10;;;;;;;7.40;100.00;100899.31;10442045;28;20507;-80
2022/11/06 17:13:20;;;;;;;;;;;;;;;7.33;100.00;100898.19;10443012;28;20123;-79
2022/11/06 17:18:27;;;;;;;1.00;0.63;;;;;;;7.37;100.00;100904.31;10439980;28;20407;-80
2022/11/06 17:23:30;;;;;;;0.70;0.70;;;;;;;7.42;100.00;100915.59;10452873;28;20045;-80
2022/11/06 17:28:31;;;;;;;0.95;0.57;;;;;;;7.50;100.00;100909.09;10437208;28;20056;-80
2022/11/06 17:33:33;;;;;;;1.45;1.13;;;;;;;7.56;100.00;100911.88;10440484;28;20110;-82
2022/11/06 17:38:35;;;;;;;1.08;0.50;;;;;;;7.50;100.00;100906.53;10451608;28;20140;-81
2022/11/06 17:43:36;;;;;;;0.00;0.00;;;;;;;7.50;100.00;100895.41;10427507;28;20128;-81
2022/11/06 17:48:38;;;;;;;2.17;0.73;;;;;;;7.51;100.00;100887.78;10442113;28;20504;-84
2022/11/06 17:53:39;;;;;;;0.10;0.08;;;;;;;7.43;100.00;100886.59;10446240;28;20051;-81
2022/11/06 17:58:41;;;;;;;0.00;0.00;;;;;;;7.48;100.00;100885.09;10445811;28;20057;-81
2022/11/06 18:03:43;;;;;;;1.55;0.30;;;;;;;7.43;100.00;100869.56;10441385;28;20132;-81
2022/11/06 18:08:45;;;;;;;1.73;0.85;;;;;;;7.44;100.00;100880.66;10443172;28;20048;-82
2022/11/06 18:13:47;;;;;;;0.20;0.10;;;;;;;7.42;100.00;100867.78;10444233;28;20124;-81
2022/11/06 18:18:48;;;;;;;0.00;0.00;;;;;;;7.38;100.00;100859.94;10456200;28;20114;-81
2022/11/06 18:23:50;;;;;;;2.40;0.55;;;;;;;7.40;100.00;100843.78;10439262;28;20045;-83
2022/11/06 18:28:52;;;;;;;0.17;0.17;;;;;;;7.48;100.00;100831.28;10427331;28;20091;-80
2022/11/06 18:33:53;;;;;;;0.00;0.00;;;;;;;7.57;100.00;100821.34;10418608;28;20049;-83
2022/11/06 18:38:55;;;;;;;0.30;0.20;;;;;;;7.68;100.00;100803.78;10444770;28;20496;-81
2022/11/06 18:43:57;;;;;;;0.10;0.10;;;;;;;7.69;100.00;100784.16;10478412;28;20036;-79
2022/11/06 18:49:00;;;;;;;0.00;0.00;;;;;;;7.76;100.00;100771.59;10444940;28;20041;-80
2022/11/06 18:54:05;;;;;;;0.00;0.00;;;;;;;7.73;100.00;100757.78;10441124;28;20072;-79
2022/11/06 18:59:12;;;;;;;0.00;0.00;;;;;;;8.01;100.00;100725.38;10457646;28;20048;-81
2022/11/06 19:04:13;;;;;;;0.43;0.20;;;;;;;8.06;100.00;100708.47;10458608;28;20140;-80
2022/11/06 19:09:15;;;;;;;0.03;0.03;;;;;;;8.21;100.00;100688.44;10449682;28;20073;-82
2022/11/06 19:14:16;;;;;;;0.15;0.10;;;;;;;8.25;100.00;100666.31;10439668;28;20568;-80
2022/11/06 19:19:18;;;;;;;0.43;0.30;;;;;;;8.32;100.00;100645.16;10464466;28;20457;-81
2022/11/06 19:24:26;;;;;;;0.00;0.00;;;;;;;8.32;100.00;100652.84;10462319;28;20049;-80
2022/11/06 19:29:27;;;;;;;0.00;0.00;;;;;;;8.38;100.00;100649.56;10445132;28;20131;-80
2022/11/06 19:34:29;;;;;;;0.40;0.40;;;;;;;8.44;100.00;100654.91;10427899;28;20049;-81
2022/11/06 19:39:38;;;;;;;0.55;0.25;;;;;;;8.46;100.00;100653.25;10455621;28;20050;-80
2022/11/06 19:44:39;;;;;;;0.10;0.10;;;;;;;8.52;100.00;100658.63;10448838;28;20139;-81
2022/11/06 19:49:41;;;;;;;0.13;0.13;;;;;;;8.49;100.00;100665.38;10460342;28;20072;-78
2022/11/06 19:54:43;;;;;;;0.10;0.00;;;;;;;8.56;100.00;100675.84;10460608;28;20504;-79
2022/11/06 19:59:44;;;;;;;0.35;0.20;;;;;;;8.60;100.00;100675.97;10428612;28;20095;-80
2022/11/06 20:04:46;;;;;;;0.55;0.22;;;;;;;8.50;100.00;100673.09;10459802;28;20123;-81
2022/11/06 20:09:48;;;;;;;0.57;0.40;;;;;;;8.57;100.00;100675.03;10441969;28;20045;-79
2022/11/06 20:14:50;;;;;;;0.32;0.10;;;;;;;8.60;100.00;100681.09;10458624;28;20067;-80
2022/11/06 20:19:51;;;;;;;0.10;0.10;;;;;;;8.53;100.00;100690.28;10459408;28;20049;-79
2022/11/06 20:24:53;;;;;;;0.52;0.52;;;;;;;8.60;100.00;100722.19;10456146;28;20401;-80
2022/11/06 20:29:55;;;;;;;0.20;0.20;;;;;;;8.70;100.00;100725.09;10417423;28;20132;-80
2022/11/06 20:34:56;;;;;;;0.20;0.10;;;;;;;8.73;100.00;100732.84;10444848;28;20095;-79
2022/11/06 20:39:58;;;;;;;0.77;0.38;;;;;;;8.76;100.00;100733.78;10446552;28;20496;-79
2022/11/06 20:44:59;;;;;;;0.43;0.20;;;;;;;8.75;100.00;100756.03;10439584;28;20455;-80
2022/11/06 20:50:28;;;;;;;0.30;0.22;;;;;;;8.76;100.00;100770.59;10459470;28;20040;-79
2022/11/06 20:55:30;;;;;;;0.15;0.15;;;;;;;8.85;100.00;100776.03;10456035;28;20448;-80
2022/11/06 21:00:31;;;;;;;0.15;0.10;;;;;;;8.93;100.00;100786.56;10441374;28;20057;-79
2022/11/06 21:05:34;;;;;;;0.20;0.20;;;;;;;8.89;100.00;100797.56;10442648;28;20508;-79
2022/11/06 21:10:35;;;;;;;1.20;0.30;;;;;;;9.03;100.00;100818.56;10446421;28;20048;-81
2022/11/06 21:15:37;;;;;;;0.10;0.10;;;;;;;9.07;100.00;100827.22;10455622;28;20471;-79
2022/11/06 21:20:39;;;;;;;0.52;0.38;;;;;;;9.17;100.00;100836.94;10446010;28;20041;-78
2022/11/06 21:25:40;;;;;;;0.28;0.20;;;;;;;9.21;100.00;100837.09;10453835;28;20041;-79
2022/11/06 21:30:47;;;;;;;0.10;0.03;;;;;;;9.28;100.00;100837.28;10443733;28;20051;-80
2022/11/06 21:35:48;;;;;;;0.05;0.05;;;;;;;9.29;100.00;100833.88;10438917;28;20572;-79
2022/11/06 21:40:51;;;;;;;0.17;0.10;;;;;;;9.37;100.00;100847.84;10439796;28;20139;-80
2022/11/06 21:45:52;;;;;;;0.70;0.40;;;;;;;9.41;100.00;100843.66;10435837;28;20072;-80
2022/11/06 21:50:54;;;;;;;1.50;0.93;;;;;;;9.49;100.00;100853.34;10442613;28;20484;-81
2022/11/06 21:55:58;;;;;;;0.32;0.32;;;;;;;9.61;100.00;100862.25;10437275;28;20055;-79
2022/11/06 22:01:03;;;;;;;0.38;0.20;;;;;;;9.67;100.00;100854.72;10453347;28;20156;-81
2022/11/06 22:06:08;;;;;;;1.10;1.02;;;;;;;9.74;100.00;100854.06;10453206;28;20048;-80
2022/11/06 22:11:18;;;;;;;1.80;0.20;;;;;;;9.78;100.00;100861.06;10459058;28;20052;-80
2022/11/06 22:16:26;;;;;;;0.40;0.17;;;;;;;9.79;100.00;100860.19;10447804;28;20045;-78
2022/11/06 22:21:29;;;;;;;1.10;0.50;;;;;;;9.92;100.00;100868.28;10460977;28;20069;-79
2022/11/06 22:26:32;;;;;;;0.00;0.00;;;;;;;9.93;100.00;100864.88;10431452;28;20075;-79
2022/11/06 22:31:34;;;;;;;0.30;0.30;;;;;;;9.91;100.00;100866.53;10435388;28;20037;-79
2022/11/06 22:36:36;;;;;;;1.80;0.75;;;;;;;10.07;100.00;100863.56;10461021;28;20072;-80
2022/11/06 22:41:38;;;;;;;0.32;0.32;;;;;;;10.15;100.00;100856.03;10447534;28;20042;-79
2022/11/06 22:46:40;;;;;;;0.20;0.10;;;;;;;10.07;100.00;100857.53;10447112;28;20048;-79
2022/11/06 22:51:41;;;;;;;0.00;0.00;;;;;;;10.09;100.00;100871.31;10459415;28;20037;-79
2022/11/06 22:56:43;;;;;;;1.50;0.68;;;;;;;10.14;100.00;100869.72;10461136;28;20075;-79
2022/11/06 23:01:44;;;;;;;5.53;0.20;;;;;;;10.12;100.00;100872.28;10459825;28;20132;-79
2022/11/06 23:06:46;;;;;;;0.10;0.10;;;;;;;10.00;100.00;100885.66;10460467;28;20053;-79
2022/11/06 23:11:48;;;;;;;0.45;0.20;;;;;;;10.05;100.00;100885.81;10422290;28;20396;-78
2022/11/06 23:17:03;;;;;;;0.90;0.45;;;;;;;9.99;100.00;100896.78;10429504;28;20471;-79
2022/11/06 23:27:25;;;;;;;5.60;0.85;;;;;;;9.91;100.00;100907.72;10441067;28;20048;-79
2022/11/06 23:32:27;;;;;;;0.20;0.20;;;;;;;10.10;100.00;100919.41;10457314;28;20041;-79
2022/11/06 23:37:29;;;;;;;0.20;0.20;;;;;;;10.03;100.00;100918.34;10457719;28;20128;-78
2022/11/06 23:42:30;;;;;;;0.25;0.20;;;;;;;10.05;100.00;100920.97;10457615;28;20124;-80
2022/11/06 23:47:34;;;;;;;0.10;0.10;;;;;;;10.00;100.00;100926.00;10456162;28;20132;-79
2022/11/06 23:52:35;;;;;;;1.60;1.30;;;;;;;9.92;100.00;100928.34;10458368;28;20058;-80
2022/11/06 23:57:37;;;;;;;0.10;0.10;;;;;;;9.99;100.00;100921.66;10457446;28;20433;-78
